VHHHRPLI

Guest
Details From VHHH - Hong Kong Intl
To RPLI - LAOAG INTL
Flight Number -
Tags decoded
Created
Modified
Stats Distance 451 nm / 836 km
Max Altitude 0 ft / 0 m
Waypoints 4
Social Downloads 0
Likes 0
Share VATSIM

Download

Looking for another format? Having issues loading an existing format? Contact us
Advertisement - Login to hide

Notes

Requested: VHHH SMT CH RPLI

Route

VHHH SMT CH RPLI

ID Type Via Altitude Latitude Longitude Leg Dist Tot Dist Heading (true) Name
O VHHH APT - 0 ft / 0 m 22.30899˚ 113.91461˚ - 0 nm - Hong Kong Intl
SMT VOR - 0 ft / 0 m 22.33762˚ 113.98207˚ 4 nm 4 nm 65° / 65° SIU MO TO VOR-DME
CH VOR - 0 ft / 0 m 22.21954˚ 114.03006˚ 7 nm 11 nm 159° / 159° CHEUNG CHAU VOR-DME
O RPLI APT - 0 ft / 0 m 18.17614˚ 120.53110˚ 439 nm 451 nm 122° / 125° LAOAG INTL

Altitude Profile

Advertisement - Login to hide

Weather


0- 5 10 15 20 25 30 35+ Temperature / ° C

Clouds and Precipitation
Forecast for 2018-05-27 00:00 UTC. Updated 3 hours ago

Ground ~20,000 ft ~40,000 ft Winds

VHHH

Details ICAO VHHH (HKG)
Name Hong Kong Intl
Region Hong Kong
Timezone Unknown (UTC+0.0)
Stats Elevation 28 ft / 9 m (AMSL)
Location 22.308995° 113.914610°
Runways 2
Magnetic Variation 2.851° W

METAR

VHHH 270200Z 23012KT 9999 FEW018 33/26 Q1010 TEMPO 3500 -TSRA SHRA FEW015CB

Decode

TAF

TAF AMD VHHH 270156Z 2702/2806 24010KT 9999 FEW020 TX35/2706Z TX35/2806Z TN28/2721Z TEMPO 2702/2704 3500 -TSRA SHRA FEW015CB SCT025 TEMPO 2720/2802 30010KT 4500 SHRA

Decode

Departure Runways

ID Width Length Bearing (true) Bearing (mag) Surface Threshold Offset Overrun Length
07L 197 ft / 60 m 12,457 ft / 3,797 m 70.79° 73.64° Asphalt 564 ft / 172 m 866 ft / 264 m
07R 197 ft / 60 m 12,458 ft / 3,797 m 70.79° 73.64° Asphalt 525 ft / 160 m 886 ft / 270 m
25L 197 ft / 60 m 12,458 ft / 3,797 m 250.80° 253.65° Asphalt 0 ft / 0 m 840 ft / 256 m
25R 197 ft / 60 m 12,457 ft / 3,797 m 250.80° 253.65° Asphalt 581 ft / 177 m 860 ft / 262 m

RPLI

Details ICAO RPLI (LAO)
Name LAOAG INTL
Region Philippines
Timezone Asia/Manila (UTC+8.0)
Stats Elevation 25 ft / 8 m (AMSL)
Location 18.176144° 120.531104°
Runways 1
Magnetic Variation 2.906° W

METAR

RPLI 270200Z 32006KT 9999 FEW019 32/24 Q1011 NOSIG RMK A2985

Decode

TAF

TAF RPLI 262300Z 2700/2724 32007KT 9999 FEW019 TEMPO 2700/2706 29010KT FEW018CB FEW019 SCT290

Decode

Destination Runways

ID Width Length Bearing (true) Bearing (mag) Surface Threshold Offset Overrun Length
01 148 ft / 45 m 9,165 ft / 2,793 m 5.37° 8.28° Concrete 1,181 ft / 360 m 1,200 ft / 366 m
19 148 ft / 45 m 9,165 ft / 2,793 m 185.37° 188.28° Concrete 0 ft / 0 m 0 ft / 0 m

Popular Alternatives